Time;durP1;ratioP1;P1;durP2;ratioP2;P2;SDS_P1;SDS_P2;PMS_P1;PMS_P2;Temp;Humidity;BMP_temperature;BMP_pressure;BME280_temperature;BME280_humidity;BME280_pressure;Samples;Min_cycle;Max_cycle;Signal;HPM_P1;HPM_P2
2022/07/12 00:00:48;;;;;;;;;;;13.10;99.90;;;;;;5049867;28;19916;-64
2022/07/12 00:03:14;;;;;;;;;;;13.10;99.90;;;;;;5068610;28;19919;-64
2022/07/12 00:05:39;;;;;;;;;;;13.00;99.90;;;;;;5069056;28;20015;-64
2022/07/12 00:08:06;;;;;;;;;;;13.00;99.90;;;;;;5064354;28;19912;-64
2022/07/12 00:10:32;;;;;;;;;;;13.00;99.90;;;;;;5065568;28;19936;-64
2022/07/12 00:12:57;;;;;;;;;;;13.00;99.90;;;;;;5066299;28;19940;-63
2022/07/12 00:15:23;;;;;;;;;;;12.80;99.90;;;;;;5068999;28;19939;-64
2022/07/12 00:17:49;;;;;;;;;;;12.80;99.90;;;;;;5060025;28;19908;-63
2022/07/12 00:20:14;;;;;;;;;;;12.80;99.90;;;;;;5065005;28;19919;-64
2022/07/12 00:22:40;;;;;;;;;;;12.80;99.90;;;;;;5067527;28;19908;-63
2022/07/12 00:25:05;;;;;;;;;;;12.80;99.90;;;;;;5066612;28;19956;-64
2022/07/12 00:27:31;;;;;;;;;;;12.70;99.90;;;;;;5060857;28;19935;-64
2022/07/12 00:29:56;;;;;;;;;;;12.60;99.90;;;;;;5066705;28;19921;-64
2022/07/12 00:32:22;;;;;;;;;;;12.60;99.90;;;;;;5067918;28;20269;-63
2022/07/12 00:34:48;;;;;;;;;;;12.60;99.90;;;;;;5068379;28;20257;-64
2022/07/12 00:37:13;;;;;;;;;;;12.70;99.90;;;;;;5069217;28;19908;-64
2022/07/12 00:39:39;;;;;;;;;;;12.70;99.90;;;;;;5063940;28;19913;-64
2022/07/12 00:42:04;;;;;;;;;;;12.60;99.90;;;;;;5065179;28;20011;-64
2022/07/12 00:44:30;;;;;;;;;;;12.60;99.90;;;;;;5048703;28;19974;-64
2022/07/12 00:47:05;;;;;;;;;;;12.60;99.90;;;;;;5068654;28;20346;-64
2022/07/12 00:49:31;;;;;;;;;;;12.50;99.90;;;;;;5065296;28;19920;-63
2022/07/12 00:51:57;;;;;;;;;;;12.50;99.90;;;;;;5050322;28;19917;-63
2022/07/12 00:54:22;;;;;;;;;;;12.50;99.90;;;;;;5064279;28;20300;-64
2022/07/12 00:56:48;;;;;;;;;;;12.60;99.90;;;;;;5046616;28;20244;-64
2022/07/12 00:59:13;;;;;;;;;;;12.60;99.90;;;;;;5067441;28;20444;-64
2022/07/12 01:01:40;;;;;;;;;;;12.50;99.90;;;;;;5066698;28;19919;-64
2022/07/12 01:04:06;;;;;;;;;;;12.50;99.90;;;;;;5049943;28;19947;-63
2022/07/12 01:06:32;;;;;;;;;;;12.50;99.90;;;;;;5050281;28;19912;-63
2022/07/12 01:08:58;;;;;;;;;;;12.40;99.90;;;;;;5067506;28;19916;-64
2022/07/12 01:11:25;;;;;;;;;;;12.40;99.90;;;;;;5064035;28;19934;-64
2022/07/12 01:13:51;;;;;;;;;;;12.40;99.90;;;;;;5063072;28;20305;-64
2022/07/12 01:16:17;;;;;;;;;;;12.30;99.90;;;;;;5072876;28;20312;-63
2022/07/12 01:18:44;;;;;;;;;;;12.20;99.90;;;;;;5071906;28;19912;-64
2022/07/12 01:21:09;;;;;;;;;;;12.20;99.90;;;;;;5053446;28;19909;-64
2022/07/12 01:23:37;;;;;;;;;;;12.20;99.90;;;;;;5073019;28;19932;-64
2022/07/12 01:26:03;;;;;;;;;;;12.20;99.90;;;;;;5052787;28;20280;-64
2022/07/12 01:28:29;;;;;;;;;;;12.20;99.90;;;;;;5051424;28;19919;-64
2022/07/12 01:30:54;;;;;;;;;;;12.20;99.90;;;;;;5051720;28;20412;-64
2022/07/12 01:33:20;;;;;;;;;;;12.20;99.90;;;;;;5064601;28;19916;-63
2022/07/12 01:35:46;;;;;;;;;;;12.10;99.90;;;;;;5071890;28;19913;-63
2022/07/12 01:38:12;;;;;;;;;;;12.00;99.90;;;;;;5069630;28;20418;-64
2022/07/12 01:40:37;;;;;;;;;;;12.00;99.90;;;;;;5070343;28;20002;-63
2022/07/12 01:43:03;;;;;;;;;;;12.00;99.90;;;;;;5054456;28;19935;-63
2022/07/12 01:45:28;;;;;;;;;;;12.00;99.90;;;;;;5072113;28;19916;-63
2022/07/12 01:47:54;;;;;;;;;;;12.00;99.90;;;;;;5051768;28;19913;-63
2022/07/12 01:50:19;;;;;;;;;;;12.10;99.90;;;;;;5071500;28;20428;-63
2022/07/12 01:52:45;;;;;;;;;;;12.10;99.90;;;;;;5070431;28;19965;-64
2022/07/12 01:55:11;;;;;;;;;;;12.10;99.90;;;;;;5070787;28;20335;-64
2022/07/12 01:57:46;;;;;;;;;;;12.20;99.90;;;;;;5072290;28;19955;-64
2022/07/12 02:00:12;;;;;;;;;;;12.40;99.90;;;;;;5066863;28;19917;-64
2022/07/12 02:02:38;;;;;;;;;;;12.40;99.90;;;;;;5070691;28;19921;-63
2022/07/12 02:05:04;;;;;;;;;;;12.30;99.90;;;;;;5071099;28;19916;-63
2022/07/12 02:07:30;;;;;;;;;;;12.20;99.90;;;;;;5069800;28;19912;-63
2022/07/12 02:09:55;;;;;;;;;;;12.20;99.90;;;;;;5065490;28;19920;-63
2022/07/12 02:12:21;;;;;;;;;;;12.20;99.90;;;;;;5067037;28;19946;-63
2022/07/12 02:14:47;;;;;;;;;;;12.30;99.90;;;;;;5068322;28;19921;-63
2022/07/12 02:17:12;;;;;;;;;;;12.30;99.90;;;;;;5070762;28;19912;-64
2022/07/12 02:19:38;;;;;;;;;;;12.40;99.90;;;;;;5071570;28;19912;-63
2022/07/12 02:22:03;;;;;;;;;;;12.50;99.90;;;;;;5070724;28;20303;-64
2022/07/12 02:24:29;;;;;;;;;;;12.30;99.90;;;;;;5070574;28;19916;-64
2022/07/12 02:26:54;;;;;;;;;;;12.20;99.90;;;;;;5067605;28;19919;-64
2022/07/12 02:29:20;;;;;;;;;;;12.00;99.90;;;;;;5044209;28;19974;-64
2022/07/12 02:31:45;;;;;;;;;;;12.00;99.90;;;;;;5066760;28;19952;-64
2022/07/12 02:34:11;;;;;;;;;;;12.10;99.90;;;;;;5072810;28;19923;-63
2022/07/12 02:36:36;;;;;;;;;;;12.20;99.90;;;;;;5070214;28;19955;-63
2022/07/12 02:39:04;;;;;;;;;;;12.30;99.90;;;;;;5070749;28;19960;-63
2022/07/12 02:41:30;;;;;;;;;;;12.10;99.90;;;;;;5063024;28;19920;-64
2022/07/12 02:43:55;;;;;;;;;;;12.00;99.90;;;;;;5068693;28;19928;-64
2022/07/12 02:46:21;;;;;;;;;;;11.90;99.90;;;;;;5050022;28;19915;-63
2022/07/12 02:48:46;;;;;;;;;;;11.90;99.90;;;;;;5069302;28;19920;-63
2022/07/12 02:51:12;;;;;;;;;;;11.80;99.90;;;;;;5069252;28;19915;-63
2022/07/12 02:53:38;;;;;;;;;;;11.70;99.90;;;;;;5070688;28;19912;-64
2022/07/12 02:56:04;;;;;;;;;;;11.70;99.90;;;;;;5070381;28;19912;-63
2022/07/12 02:58:29;;;;;;;;;;;11.70;99.90;;;;;;5069288;28;19924;-64
2022/07/12 03:00:55;;;;;;;;;;;11.70;99.90;;;;;;5067152;28;19921;-64
2022/07/12 03:03:20;;;;;;;;;;;11.70;99.90;;;;;;5067758;28;19912;-64
2022/07/12 03:05:46;;;;;;;;;;;11.60;99.90;;;;;;5061332;28;20171;-64
2022/07/12 03:08:12;;;;;;;;;;;11.70;99.90;;;;;;5070292;28;19912;-63
2022/07/12 03:10:37;;;;;;;;;;;11.70;99.90;;;;;;5066460;28;20287;-64
2022/07/12 03:13:03;;;;;;;;;;;11.60;99.90;;;;;;5068759;28;20273;-63
2022/07/12 03:15:30;;;;;;;;;;;11.60;99.90;;;;;;5051924;28;19909;-64
2022/07/12 03:17:56;;;;;;;;;;;11.60;99.90;;;;;;5049522;28;19955;-63
2022/07/12 03:20:22;;;;;;;;;;;11.70;99.90;;;;;;5067100;28;20360;-64
2022/07/12 03:22:49;;;;;;;;;;;11.70;99.90;;;;;;5049817;28;19923;-64
2022/07/12 03:25:15;;;;;;;;;;;11.60;99.90;;;;;;5069050;28;20004;-63
2022/07/12 03:27:41;;;;;;;;;;;11.50;99.90;;;;;;5067327;28;20010;-64
2022/07/12 03:30:07;;;;;;;;;;;11.40;99.90;;;;;;5068973;28;19916;-63
2022/07/12 03:32:32;;;;;;;;;;;11.40;99.90;;;;;;5069288;28;20351;-64
2022/07/12 03:34:58;;;;;;;;;;;11.40;99.90;;;;;;5064299;28;19956;-64
2022/07/12 03:37:23;;;;;;;;;;;11.40;99.90;;;;;;5049774;28;19950;-63
2022/07/12 03:39:49;;;;;;;;;;;11.40;99.90;;;;;;5065849;28;19916;-63
2022/07/12 03:42:14;;;;;;;;;;;11.40;99.90;;;;;;5048117;28;19956;-63
2022/07/12 03:44:40;;;;;;;;;;;11.50;99.90;;;;;;5048799;28;19921;-63
2022/07/12 03:47:05;;;;;;;;;;;11.50;99.90;;;;;;5068055;28;19916;-63
2022/07/12 03:49:31;;;;;;;;;;;11.50;99.90;;;;;;5063935;28;19912;-64
2022/07/12 03:51:57;;;;;;;;;;;11.50;99.90;;;;;;5065657;28;19920;-64
2022/07/12 03:54:22;;;;;;;;;;;11.50;99.90;;;;;;5066615;28;19921;-63
2022/07/12 03:59:32;;;;;;;;;;;11.60;99.90;;;;;;5067309;28;19962;-64
2022/07/12 04:01:58;;;;;;;;;;;11.60;99.90;;;;;;5062564;28;19959;-64
2022/07/12 04:04:23;;;;;;;;;;;11.70;99.90;;;;;;5068939;28;19921;-63
2022/07/12 04:06:49;;;;;;;;;;;11.70;99.90;;;;;;5065121;28;20042;-63
2022/07/12 04:09:15;;;;;;;;;;;11.70;99.90;;;;;;5056204;28;19912;-63
2022/07/12 04:11:40;;;;;;;;;;;11.70;99.90;;;;;;5043136;28;20372;-64
2022/07/12 04:14:06;;;;;;;;;;;11.80;99.90;;;;;;5046014;28;19931;-63
2022/07/12 04:16:31;;;;;;;;;;;11.90;99.90;;;;;;5067248;28;19924;-63
2022/07/12 04:18:57;;;;;;;;;;;12.10;99.90;;;;;;5066491;28;19920;-63
2022/07/12 04:21:23;;;;;;;;;;;12.20;99.90;;;;;;5064149;28;19920;-63
2022/07/12 04:23:48;;;;;;;;;;;12.20;99.90;;;;;;5068114;28;19919;-64
2022/07/12 04:26:14;;;;;;;;;;;12.30;99.90;;;;;;5047689;28;19923;-64
2022/07/12 04:28:39;;;;;;;;;;;12.40;99.90;;;;;;5067814;28;20272;-64
2022/07/12 04:31:06;;;;;;;;;;;12.40;99.90;;;;;;5065045;28;19912;-63
2022/07/12 04:33:32;;;;;;;;;;;12.50;99.90;;;;;;5065537;28;19909;-64
2022/07/12 04:35:57;;;;;;;;;;;12.60;99.90;;;;;;5067071;28;20338;-64
2022/07/12 04:38:23;;;;;;;;;;;12.70;99.90;;;;;;5054398;28;19942;-63
2022/07/12 04:40:48;;;;;;;;;;;12.70;99.90;;;;;;5065669;28;19991;-64
2022/07/12 04:43:14;;;;;;;;;;;12.80;99.90;;;;;;5048056;28;20411;-63
2022/07/12 04:45:43;;;;;;;;;;;12.90;99.90;;;;;;5065611;28;20383;-64
2022/07/12 04:48:12;;;;;;;;;;;13.30;99.90;;;;;;5062815;28;19928;-64
2022/07/12 04:50:38;;;;;;;;;;;13.50;99.90;;;;;;5050017;28;20271;-63
2022/07/12 04:53:03;;;;;;;;;;;13.60;99.90;;;;;;5048381;28;19917;-64
2022/07/12 04:55:29;;;;;;;;;;;13.60;99.90;;;;;;5062866;28;19920;-64
2022/07/12 04:57:55;;;;;;;;;;;13.70;99.90;;;;;;5064412;28;19927;-63
2022/07/12 05:00:20;;;;;;;;;;;13.80;99.90;;;;;;5064578;28;19943;-64
2022/07/12 05:02:46;;;;;;;;;;;13.80;99.90;;;;;;5066469;28;19948;-63
2022/07/12 05:05:12;;;;;;;;;;;13.90;99.90;;;;;;5065090;28;20281;-64
2022/07/12 05:07:37;;;;;;;;;;;13.90;99.90;;;;;;5045560;28;19988;-64
2022/07/12 05:10:03;;;;;;;;;;;14.00;99.90;;;;;;5061788;28;19920;-63
2022/07/12 05:12:28;;;;;;;;;;;14.10;99.90;;;;;;5064913;28;20002;-63
2022/07/12 05:14:54;;;;;;;;;;;14.20;99.90;;;;;;5064748;28;20406;-64
2022/07/12 05:17:19;;;;;;;;;;;14.40;99.90;;;;;;5066422;28;19916;-64
2022/07/12 05:19:45;;;;;;;;;;;14.60;99.90;;;;;;5064534;28;20229;-64
2022/07/12 05:22:10;;;;;;;;;;;14.70;99.90;;;;;;5063046;28;19966;-63
2022/07/12 05:24:36;;;;;;;;;;;14.80;99.90;;;;;;5056727;28;19938;-63
2022/07/12 05:27:01;;;;;;;;;;;15.00;99.90;;;;;;5058260;28;19921;-63
2022/07/12 05:29:27;;;;;;;;;;;15.20;99.90;;;;;;5067190;28;19912;-63
2022/07/12 05:31:57;;;;;;;;;;;15.30;99.90;;;;;;5065563;28;19917;-63
2022/07/12 05:34:22;;;;;;;;;;;15.50;99.90;;;;;;5064351;28;20302;-63
2022/07/12 05:36:48;;;;;;;;;;;15.50;99.90;;;;;;5044823;28;19972;-63
2022/07/12 05:39:13;;;;;;;;;;;15.70;99.90;;;;;;5064274;28;19916;-63
2022/07/12 05:41:39;;;;;;;;;;;15.70;99.90;;;;;;5061518;28;19920;-63
2022/07/12 05:44:05;;;;;;;;;;;15.70;99.90;;;;;;5042653;28;19936;-63
2022/07/12 05:46:30;;;;;;;;;;;15.80;99.90;;;;;;5064005;28;19916;-63
2022/07/12 05:48:56;;;;;;;;;;;15.90;99.90;;;;;;5065726;28;19965;-63
2022/07/12 05:54:06;;;;;;;;;;;16.20;99.90;;;;;;5062611;28;20310;-64
2022/07/12 05:56:31;;;;;;;;;;;16.30;99.90;;;;;;5065687;28;19912;-64
2022/07/12 05:58:57;;;;;;;;;;;16.50;99.90;;;;;;5064860;28;20314;-64
2022/07/12 06:01:22;;;;;;;;;;;16.60;99.90;;;;;;5068726;28;19981;-63
2022/07/12 06:03:47;;;;;;;;;;;16.60;99.90;;;;;;5069283;28;19967;-64
2022/07/12 06:06:13;;;;;;;;;;;16.80;99.90;;;;;;5070017;28;19909;-64
2022/07/12 06:08:39;;;;;;;;;;;16.90;99.90;;;;;;5057199;28;19920;-63
2022/07/12 06:11:04;;;;;;;;;;;16.90;99.90;;;;;;5047936;28;19992;-64
2022/07/12 06:13:30;;;;;;;;;;;17.10;99.90;;;;;;5065462;28;19982;-64
2022/07/12 06:15:55;;;;;;;;;;;17.10;99.90;;;;;;5063551;28;19917;-64
2022/07/12 06:18:21;;;;;;;;;;;17.20;99.90;;;;;;5070508;28;19999;-63
2022/07/12 06:20:47;;;;;;;;;;;17.30;99.90;;;;;;5069027;28;20446;-64
2022/07/12 06:23:13;;;;;;;;;;;17.40;99.90;;;;;;5070031;28;19909;-63
2022/07/12 06:25:39;;;;;;;;;;;17.60;99.90;;;;;;5070426;28;19917;-64
2022/07/12 06:28:05;;;;;;;;;;;17.50;99.90;;;;;;5069658;28;19944;-64
2022/07/12 06:30:30;;;;;;;;;;;17.60;99.90;;;;;;5071134;28;19955;-63
2022/07/12 06:32:56;;;;;;;;;;;17.80;99.90;;;;;;5051340;28;19966;-63
2022/07/12 06:35:21;;;;;;;;;;;17.90;99.90;;;;;;5069184;28;20036;-64
2022/07/12 06:37:47;;;;;;;;;;;18.00;99.90;;;;;;5069269;28;19920;-63
2022/07/12 06:40:15;;;;;;;;;;;18.10;99.90;;;;;;5068801;28;19909;-64
2022/07/12 06:42:40;;;;;;;;;;;18.20;99.90;;;;;;5064945;28;19961;-64
2022/07/12 06:45:06;;;;;;;;;;;18.20;99.90;;;;;;5068535;28;20011;-64
2022/07/12 06:47:32;;;;;;;;;;;18.20;99.90;;;;;;5069325;28;19923;-63
2022/07/12 06:49:57;;;;;;;;;;;18.30;99.90;;;;;;5069045;28;19992;-64
2022/07/12 06:52:23;;;;;;;;;;;18.50;99.90;;;;;;5051745;28;20004;-64
2022/07/12 06:54:48;;;;;;;;;;;18.60;99.90;;;;;;5069482;28;19954;-63
2022/07/12 06:57:14;;;;;;;;;;;18.70;99.90;;;;;;5050774;28;19952;-64
2022/07/12 06:59:39;;;;;;;;;;;18.80;99.90;;;;;;5068924;28;19927;-64
2022/07/12 07:02:05;;;;;;;;;;;18.90;99.90;;;;;;5068470;28;19908;-63
2022/07/12 07:04:30;;;;;;;;;;;19.00;99.90;;;;;;5069480;28;20295;-63
2022/07/12 07:06:56;;;;;;;;;;;19.10;99.90;;;;;;5069007;28;19964;-63
2022/07/12 07:09:21;;;;;;;;;;;19.20;99.90;;;;;;5069165;28;19913;-63
2022/07/12 07:11:47;;;;;;;;;;;19.20;99.90;;;;;;5064365;28;20002;-64
2022/07/12 07:14:13;;;;;;;;;;;19.30;99.90;;;;;;5067710;28;19928;-64
2022/07/12 07:16:38;;;;;;;;;;;19.50;99.90;;;;;;5069480;28;20406;-64
2022/07/12 07:19:05;;;;;;;;;;;19.60;99.90;;;;;;5066222;28;19915;-63
2022/07/12 07:21:31;;;;;;;;;;;19.80;99.90;;;;;;5069282;28;20217;-64
2022/07/12 07:23:56;;;;;;;;;;;20.10;99.90;;;;;;5068636;28;19923;-64
2022/07/12 07:26:22;;;;;;;;;;;20.10;99.90;;;;;;5068889;28;19920;-64
2022/07/12 07:31:35;;;;;;;;;;;20.20;99.90;;;;;;5068370;28;19982;-64
2022/07/12 07:34:01;;;;;;;;;;;20.00;99.90;;;;;;5067385;28;20299;-64
2022/07/12 07:36:27;;;;;;;;;;;19.80;99.90;;;;;;5068602;28;19913;-64
2022/07/12 07:38:52;;;;;;;;;;;20.10;99.90;;;;;;5068564;28;20102;-64
2022/07/12 07:41:18;;;;;;;;;;;20.30;99.90;;;;;;5066475;28;19912;-64
2022/07/12 07:43:43;;;;;;;;;;;20.60;99.90;;;;;;5050851;28;19975;-63
2022/07/12 07:46:09;;;;;;;;;;;20.60;99.90;;;;;;5067794;28;20390;-64
2022/07/12 07:48:34;;;;;;;;;;;20.40;99.90;;;;;;5068682;28;19939;-64
2022/07/12 07:51:00;;;;;;;;;;;20.40;99.90;;;;;;5042647;28;20322;-64
2022/07/12 07:53:25;;;;;;;;;;;20.50;99.90;;;;;;5050277;28;20371;-63
2022/07/12 07:55:51;;;;;;;;;;;20.70;99.90;;;;;;5050452;28;20000;-64
2022/07/12 07:58:17;;;;;;;;;;;20.90;99.90;;;;;;5068045;28;20233;-64
2022/07/12 08:00:42;;;;;;;;;;;21.00;99.90;;;;;;5056777;28;19912;-64
2022/07/12 08:03:08;;;;;;;;;;;21.20;99.90;;;;;;5049762;28;19915;-64
2022/07/12 08:05:33;;;;;;;;;;;21.50;99.90;;;;;;5068423;28;20036;-64
2022/07/12 08:08:00;;;;;;;;;;;21.60;99.90;;;;;;5067829;28;20410;-64
2022/07/12 08:10:26;;;;;;;;;;;21.90;99.90;;;;;;5048675;28;19978;-64
2022/07/12 08:12:52;;;;;;;;;;;22.00;99.90;;;;;;5065474;28;20318;-64
2022/07/12 08:15:17;;;;;;;;;;;22.30;99.90;;;;;;5068056;28;19939;-63
2022/07/12 08:17:43;;;;;;;;;;;22.30;99.90;;;;;;5068230;28;19913;-63
2022/07/12 08:20:09;;;;;;;;;;;22.40;99.90;;;;;;5049112;28;20299;-64
2022/07/12 08:22:42;;;;;;;;;;;22.50;99.90;;;;;;5067853;28;19916;-64
2022/07/12 08:25:07;;;;;;;;;;;23.00;99.90;;;;;;5064746;28;19928;-64
2022/07/12 08:27:33;;;;;;;;;;;23.40;99.90;;;;;;5067790;28;19912;-64
2022/07/12 08:29:58;;;;;;;;;;;23.50;99.90;;;;;;5067914;28;20076;-64
2022/07/12 08:32:24;;;;;;;;;;;23.70;99.90;;;;;;5067864;28;19965;-64
2022/07/12 08:34:49;;;;;;;;;;;23.90;99.90;;;;;;5068044;28;19924;-64
2022/07/12 08:37:15;;;;;;;;;;;24.30;99.90;;;;;;5067438;28;20288;-64
2022/07/12 08:39:40;;;;;;;;;;;24.60;99.90;;;;;;5067879;28;19908;-64
2022/07/12 08:42:07;;;;;;;;;;;24.80;99.90;;;;;;5063340;28;19909;-64
2022/07/12 08:44:32;;;;;;;;;;;25.20;99.90;;;;;;5068479;28;19924;-64
2022/07/12 08:46:58;;;;;;;;;;;25.50;99.90;;;;;;5067073;28;19917;-64
2022/07/12 08:49:24;;;;;;;;;;;25.30;99.90;;;;;;5060757;28;20419;-64
2022/07/12 08:51:49;;;;;;;;;;;24.90;99.90;;;;;;5065038;28;19986;-64
2022/07/12 08:54:18;;;;;;;;;;;24.90;99.90;;;;;;5065490;28;20374;-64
2022/07/12 08:56:44;;;;;;;;;;;25.00;99.90;;;;;;5064364;28;19962;-64
2022/07/12 08:59:09;;;;;;;;;;;24.90;99.90;;;;;;5065912;28;19924;-64
2022/07/12 09:01:38;;;;;;;;;;;25.00;99.90;;;;;;5067570;28;19999;-64
2022/07/12 09:04:14;;;;;;;;;;;25.20;99.90;;;;;;5064465;28;20419;-64
2022/07/12 09:06:39;;;;;;;;;;;25.50;99.90;;;;;;5062381;28;19996;-64
2022/07/12 09:09:08;;;;;;;;;;;26.10;99.70;;;;;;5052240;28;19936;-64
2022/07/12 09:11:35;;;;;;;;;;;26.10;99.90;;;;;;5063997;28;19953;-64
2022/07/12 09:14:02;;;;;;;;;;;26.30;99.60;;;;;;5066072;28;19917;-64
2022/07/12 09:16:28;;;;;;;;;;;26.70;97.60;;;;;;5068141;28;20307;-65
2022/07/12 09:19:14;;;;;;;;;;;27.50;95.30;;;;;;5065076;28;19965;-65
2022/07/12 09:21:45;;;;;;;;;;;27.70;94.10;;;;;;5065571;28;19909;-65
2022/07/12 09:24:11;;;;;;;;;;;27.70;93.90;;;;;;5063890;28;20011;-64
2022/07/12 09:26:37;;;;;;;;;;;27.50;93.10;;;;;;5068336;28;20150;-64
2022/07/12 09:29:06;;;;;;;;;;;27.90;93.20;;;;;;5068315;28;20320;-64
2022/07/12 09:37:15;;;;;;;;;;;27.60;93.20;;;;;;5067858;28;19954;-65
2022/07/12 09:39:41;;;;;;;;;;;27.80;93.70;;;;;;5053230;28;20382;-65
2022/07/12 09:42:09;;;;;;;;;;;28.60;92.50;;;;;;5069584;28;19974;-64
2022/07/12 09:44:35;;;;;;;;;;;28.80;90.60;;;;;;5071273;28;19928;-65
2022/07/12 09:47:01;;;;;;;;;;;28.90;90.80;;;;;;5070379;28;20375;-66
2022/07/12 09:49:28;;;;;;;;;;;29.50;89.70;;;;;;5071343;28;19909;-65
2022/07/12 09:51:56;;;;;;;;;;;29.90;87.30;;;;;;5070949;28;19985;-65
2022/07/12 09:54:27;;;;;;;;;;;30.20;84.50;;;;;;5070497;28;19938;-65
2022/07/12 09:56:55;;;;;;;;;;;30.40;82.60;;;;;;5070883;28;19979;-65
2022/07/12 09:59:23;;;;;;;;;;;30.20;83.50;;;;;;5070547;28;20376;-65
2022/07/12 10:01:49;;;;;;;;;;;30.30;82.90;;;;;;5070776;28;20014;-65
2022/07/12 10:04:15;;;;;;;;;;;30.30;81.60;;;;;;5070548;28;20292;-65
2022/07/12 10:06:40;;;;;;;;;;;30.30;82.50;;;;;;5070838;28;20077;-65
2022/07/12 10:09:06;;;;;;;;;;;30.10;81.90;;;;;;5069752;28;19908;-65
2022/07/12 10:11:32;;;;;;;;;;;30.30;80.90;;;;;;5068934;28;20304;-65
2022/07/12 10:13:57;;;;;;;;;;;30.60;80.20;;;;;;5071091;28;20367;-65
2022/07/12 10:16:26;;;;;;;;;;;30.20;78.70;;;;;;5070443;28;19923;-65
2022/07/12 10:19:11;;;;;;;;;;;29.30;82.90;;;;;;5070995;28;19913;-65
2022/07/12 10:21:39;;;;;;;;;;;29.60;81.00;;;;;;5069571;28;19915;-65
2022/07/12 10:24:24;;;;;;;;;;;29.90;81.30;;;;;;5070615;28;19919;-65
2022/07/12 10:26:50;;;;;;;;;;;29.40;84.10;;;;;;5069416;28;19974;-65
2022/07/12 10:29:19;;;;;;;;;;;30.10;80.90;;;;;;5070959;28;19912;-65
2022/07/12 10:31:45;;;;;;;;;;;29.90;82.20;;;;;;5066859;28;19908;-65
2022/07/12 10:34:22;;;;;;;;;;;30.20;80.00;;;;;;5070537;28;20366;-65
2022/07/12 10:36:56;;;;;;;;;;;30.40;77.80;;;;;;5069043;28;19998;-65
2022/07/12 10:39:22;;;;;;;;;;;30.70;79.00;;;;;;5063542;28;20001;-65
2022/07/12 10:42:06;;;;;;;;;;;31.10;75.50;;;;;;5065939;28;19982;-65
2022/07/12 10:44:36;;;;;;;;;;;31.20;73.20;;;;;;5066256;28;19917;-65
2022/07/12 10:47:02;;;;;;;;;;;30.80;76.70;;;;;;5067406;28;19912;-65
2022/07/12 10:49:29;;;;;;;;;;;30.90;76.70;;;;;;5070155;28;20007;-65
2022/07/12 10:52:10;;;;;;;;;;;31.00;76.60;;;;;;5069926;28;19908;-65
2022/07/12 10:54:39;;;;;;;;;;;30.80;75.10;;;;;;5066644;28;20054;-66
2022/07/12 10:57:04;;;;;;;;;;;30.90;77.20;;;;;;5051927;28;20395;-65
2022/07/12 10:59:33;;;;;;;;;;;30.40;77.30;;;;;;5069073;28;19921;-65
2022/07/12 11:01:59;;;;;;;;;;;31.20;72.90;;;;;;5069752;28;19981;-65
2022/07/12 11:04:25;;;;;;;;;;;31.00;73.80;;;;;;5067347;28;21083;-65
2022/07/12 11:06:55;;;;;;;;;;;31.40;73.50;;;;;;5051671;28;19947;-65
2022/07/12 11:09:21;;;;;;;;;;;32.30;73.50;;;;;;5050932;28;19915;-65
2022/07/12 11:11:50;;;;;;;;;;;32.00;71.10;;;;;;5068265;28;20255;-65
2022/07/12 11:14:23;;;;;;;;;;;31.80;71.50;;;;;;5069504;28;19916;-65
2022/07/12 11:16:49;;;;;;;;;;;32.50;70.70;;;;;;5063266;28;19912;-65
2022/07/12 11:19:15;;;;;;;;;;;32.90;68.70;;;;;;5069180;28;20356;-65
2022/07/12 11:21:44;;;;;;;;;;;32.40;70.90;;;;;;5051632;28;20015;-66
2022/07/12 11:24:17;;;;;;;;;;;32.10;70.50;;;;;;5068983;28;19959;-65
2022/07/12 11:26:42;;;;;;;;;;;32.00;70.20;;;;;;5069556;28;19908;-65
2022/07/12 11:29:08;;;;;;;;;;;32.40;69.80;;;;;;5068725;28;20457;-65
2022/07/12 11:31:34;;;;;;;;;;;32.80;69.50;;;;;;5069346;28;19909;-65
2022/07/12 11:33:59;;;;;;;;;;;31.80;70.10;;;;;;5069524;28;19993;-66
2022/07/12 11:36:25;;;;;;;;;;;32.40;68.90;;;;;;5067585;28;20030;-65
2022/07/12 11:38:51;;;;;;;;;;;32.80;69.20;;;;;;5069224;28;20372;-65
2022/07/12 11:41:16;;;;;;;;;;;33.00;67.80;;;;;;5067094;28;19912;-65
2022/07/12 11:43:42;;;;;;;;;;;33.00;67.10;;;;;;5069245;28;19935;-66
2022/07/12 11:46:08;;;;;;;;;;;33.70;66.90;;;;;;5069304;28;20288;-65
2022/07/12 11:48:35;;;;;;;;;;;34.50;65.40;;;;;;5068644;28;20284;-65
2022/07/12 11:51:02;;;;;;;;;;;34.60;64.80;;;;;;5069218;28;19920;-65
2022/07/12 11:53:28;;;;;;;;;;;34.70;65.50;;;;;;5068728;28;19916;-65
2022/07/12 11:55:57;;;;;;;;;;;34.00;64.90;;;;;;5067939;28;19909;-65
2022/07/12 11:58:23;;;;;;;;;;;34.40;64.40;;;;;;5065283;28;20402;-65
2022/07/12 12:00:49;;;;;;;;;;;34.60;63.90;;;;;;5067178;28;19908;-65
2022/07/12 12:03:16;;;;;;;;;;;34.20;64.30;;;;;;5067994;28;19908;-65
2022/07/12 12:05:42;;;;;;;;;;;34.60;63.20;;;;;;5064493;28;19978;-65
2022/07/12 12:08:09;;;;;;;;;;;34.20;63.30;;;;;;5068662;28;19923;-65
2022/07/12 12:10:35;;;;;;;;;;;34.50;64.00;;;;;;5063996;28;19912;-65
2022/07/12 12:13:02;;;;;;;;;;;34.60;61.80;;;;;;5068279;28;20011;-65
2022/07/12 12:15:31;;;;;;;;;;;35.40;61.00;;;;;;5067895;28;19921;-65
2022/07/12 12:17:59;;;;;;;;;;;34.30;61.40;;;;;;5050565;28;20411;-65
2022/07/12 12:20:26;;;;;;;;;;;34.50;60.50;;;;;;5064414;28;19916;-65
2022/07/12 12:22:58;;;;;;;;;;;34.70;60.10;;;;;;5068307;28;20007;-65
2022/07/12 12:25:24;;;;;;;;;;;34.50;60.00;;;;;;5067561;28;19912;-65
2022/07/12 12:28:03;;;;;;;;;;;34.80;58.90;;;;;;5067847;28;19919;-65
2022/07/12 12:30:29;;;;;;;;;;;35.00;60.00;;;;;;5068003;28;20416;-65
2022/07/12 12:32:59;;;;;;;;;;;34.70;59.80;;;;;;5067741;28;19917;-65
2022/07/12 12:35:35;;;;;;;;;;;34.50;60.00;;;;;;5067564;28;19916;-66
2022/07/12 12:38:01;;;;;;;;;;;36.00;59.30;;;;;;5064572;28;19916;-65
2022/07/12 12:40:30;;;;;;;;;;;37.20;57.00;;;;;;5065942;28;19916;-65
2022/07/12 12:43:25;;;;;;;;;;;36.60;57.40;;;;;;5067780;28;19978;-65
2022/07/12 12:45:51;;;;;;;;;;;36.00;57.60;;;;;;5050750;28;19916;-65
2022/07/12 12:48:25;;;;;;;;;;;35.20;57.80;;;;;;5067007;28;19909;-65
2022/07/12 12:50:52;;;;;;;;;;;35.50;58.50;;;;;;5065088;28;19978;-65
2022/07/12 12:53:18;;;;;;;;;;;34.70;58.80;;;;;;5066863;28;20543;-65
2022/07/12 12:55:45;;;;;;;;;;;34.70;57.90;;;;;;5068027;28;19916;-65
2022/07/12 12:58:11;;;;;;;;;;;34.90;58.80;;;;;;5067451;28;19919;-65
2022/07/12 13:00:38;;;;;;;;;;;34.60;57.30;;;;;;5049619;28;19993;-65
2022/07/12 13:03:04;;;;;;;;;;;34.40;57.20;;;;;;5067544;28;19908;-65
2022/07/12 13:05:29;;;;;;;;;;;35.30;56.40;;;;;;5067152;28;19917;-65
2022/07/12 13:07:55;;;;;;;;;;;35.00;56.00;;;;;;5054054;28;20292;-65
2022/07/12 13:10:21;;;;;;;;;;;35.10;56.30;;;;;;5073533;28;19916;-65
2022/07/12 13:12:47;;;;;;;;;;;35.10;55.50;;;;;;5074242;28;19913;-65
2022/07/12 13:15:12;;;;;;;;;;;36.20;54.90;;;;;;5074225;28;19962;-65
2022/07/12 13:17:38;;;;;;;;;;;35.30;54.80;;;;;;5066387;28;19966;-65
2022/07/12 13:20:05;;;;;;;;;;;36.80;53.00;;;;;;5074339;28;20000;-65
2022/07/12 13:22:30;;;;;;;;;;;37.00;52.60;;;;;;5055342;28;19912;-65
2022/07/12 13:24:56;;;;;;;;;;;36.70;52.50;;;;;;5070160;28;19917;-65
2022/07/12 13:27:21;;;;;;;;;;;36.40;52.40;;;;;;5073323;28;19912;-65
2022/07/12 13:29:47;;;;;;;;;;;37.00;52.20;;;;;;5074155;28;19917;-65
2022/07/12 13:32:12;;;;;;;;;;;36.70;49.40;;;;;;5074245;28;20283;-65
2022/07/12 13:34:38;;;;;;;;;;;35.90;51.80;;;;;;5055170;28;19913;-65
2022/07/12 13:37:04;;;;;;;;;;;35.70;52.90;;;;;;5073869;28;19935;-65
2022/07/12 13:42:14;;;;;;;;;;;34.90;54.20;;;;;;5070153;28;19970;-65
2022/07/12 13:44:39;;;;;;;;;;;36.40;55.30;;;;;;5073705;28;20309;-65
2022/07/12 13:47:05;;;;;;;;;;;36.90;53.30;;;;;;5073690;28;19909;-65
2022/07/12 13:49:30;;;;;;;;;;;36.90;54.10;;;;;;5073647;28;19919;-65
2022/07/12 13:51:56;;;;;;;;;;;36.50;54.60;;;;;;5073899;28;20007;-65
2022/07/12 13:54:21;;;;;;;;;;;36.20;54.20;;;;;;5073231;28;19944;-65
2022/07/12 13:56:48;;;;;;;;;;;36.50;53.40;;;;;;5071206;28;19920;-65
2022/07/12 13:59:13;;;;;;;;;;;37.20;53.80;;;;;;5073283;28;20395;-65
2022/07/12 14:01:39;;;;;;;;;;;37.40;53.80;;;;;;5073108;28;20044;-65
2022/07/12 14:04:04;;;;;;;;;;;37.80;53.90;;;;;;5073235;28;20007;-65
2022/07/12 14:06:30;;;;;;;;;;;36.30;54.10;;;;;;5070671;28;20721;-64
2022/07/12 14:08:56;;;;;;;;;;;35.90;54.40;;;;;;5072835;28;19928;-65
2022/07/12 14:11:21;;;;;;;;;;;36.50;55.10;;;;;;5070988;28;19962;-65
2022/07/12 14:13:47;;;;;;;;;;;36.60;54.60;;;;;;5072732;28;20055;-65
2022/07/12 14:16:13;;;;;;;;;;;37.00;53.80;;;;;;5072914;28;19958;-65
2022/07/12 14:18:39;;;;;;;;;;;37.10;54.40;;;;;;5051061;28;20371;-65
2022/07/12 14:21:06;;;;;;;;;;;36.00;54.80;;;;;;5069825;28;19944;-65
2022/07/12 14:23:32;;;;;;;;;;;35.20;55.30;;;;;;5072291;28;19940;-65
2022/07/12 14:25:57;;;;;;;;;;;34.30;55.40;;;;;;5071714;28;20459;-64
2022/07/12 14:28:23;;;;;;;;;;;35.40;55.50;;;;;;5070565;28;19920;-65